sensor_id;sensor_type;location;lat;lon;timestamp;temperature;humidity
73939;DHT22;62291;47.554;8.504;2023-07-20T00:01:04;19.10;99.90
73939;DHT22;62291;47.554;8.504;2023-07-20T00:03:29;19.20;99.90
73939;DHT22;62291;47.554;8.504;2023-07-20T00:05:55;19.20;99.90
73939;DHT22;62291;47.554;8.504;2023-07-20T00:08:21;19.30;99.90
73939;DHT22;62291;47.554;8.504;2023-07-20T00:10:46;19.30;99.90
73939;DHT22;62291;47.554;8.504;2023-07-20T00:13:12;19.30;99.90
73939;DHT22;62291;47.554;8.504;2023-07-20T00:15:38;19.40;99.90
73939;DHT22;62291;47.554;8.504;2023-07-20T00:18:04;19.50;99.90
73939;DHT22;62291;47.554;8.504;2023-07-20T00:20:30;19.50;99.90
73939;DHT22;62291;47.554;8.504;2023-07-20T00:22:57;19.50;99.90
73939;DHT22;62291;47.554;8.504;2023-07-20T00:25:23;19.50;99.90
73939;DHT22;62291;47.554;8.504;2023-07-20T00:27:49;19.60;99.90
73939;DHT22;62291;47.554;8.504;2023-07-20T00:30:15;19.50;99.90
73939;DHT22;62291;47.554;8.504;2023-07-20T00:32:44;19.50;99.90
73939;DHT22;62291;47.554;8.504;2023-07-20T00:35:11;19.50;99.90
73939;DHT22;62291;47.554;8.504;2023-07-20T00:37:37;19.50;99.90
73939;DHT22;62291;47.554;8.504;2023-07-20T00:40:03;19.40;99.90
73939;DHT22;62291;47.554;8.504;2023-07-20T00:42:38;19.40;99.90
73939;DHT22;62291;47.554;8.504;2023-07-20T00:45:05;19.30;99.90
73939;DHT22;62291;47.554;8.504;2023-07-20T00:47:31;19.20;99.90
73939;DHT22;62291;47.554;8.504;2023-07-20T00:49:57;19.20;99.90
73939;DHT22;62291;47.554;8.504;2023-07-20T00:52:24;19.20;99.90
73939;DHT22;62291;47.554;8.504;2023-07-20T00:54:51;19.30;99.90
73939;DHT22;62291;47.554;8.504;2023-07-20T00:57:19;19.30;99.90
73939;DHT22;62291;47.554;8.504;2023-07-20T00:59:45;19.30;99.90
73939;DHT22;62291;47.554;8.504;2023-07-20T01:02:10;19.30;99.90
73939;DHT22;62291;47.554;8.504;2023-07-20T01:04:36;19.30;99.90
73939;DHT22;62291;47.554;8.504;2023-07-20T01:07:13;19.30;99.90
73939;DHT22;62291;47.554;8.504;2023-07-20T01:14:46;19.40;99.90
73939;DHT22;62291;47.554;8.504;2023-07-20T01:17:11;19.50;99.90
73939;DHT22;62291;47.554;8.504;2023-07-20T01:19:38;19.50;99.90
73939;DHT22;62291;47.554;8.504;2023-07-20T01:25:03;19.50;99.90
73939;DHT22;62291;47.554;8.504;2023-07-20T01:30:42;19.50;99.90
73939;DHT22;62291;47.554;8.504;2023-07-20T01:33:09;19.50;99.90
73939;DHT22;62291;47.554;8.504;2023-07-20T01:35:38;19.40;99.90
73939;DHT22;62291;47.554;8.504;2023-07-20T01:38:07;19.40;99.90
73939;DHT22;62291;47.554;8.504;2023-07-20T01:40:34;19.30;99.90
73939;DHT22;62291;47.554;8.504;2023-07-20T01:43:00;19.20;99.90
73939;DHT22;62291;47.554;8.504;2023-07-20T01:45:26;19.10;99.90
73939;DHT22;62291;47.554;8.504;2023-07-20T01:47:52;19.20;99.90
73939;DHT22;62291;47.554;8.504;2023-07-20T01:50:18;19.20;99.90
73939;DHT22;62291;47.554;8.504;2023-07-20T01:52:43;19.10;99.90
73939;DHT22;62291;47.554;8.504;2023-07-20T01:55:09;19.20;99.90
73939;DHT22;62291;47.554;8.504;2023-07-20T01:57:35;19.20;99.90
73939;DHT22;62291;47.554;8.504;2023-07-20T02:00:01;19.20;99.90
73939;DHT22;62291;47.554;8.504;2023-07-20T02:02:27;19.20;99.90
73939;DHT22;62291;47.554;8.504;2023-07-20T02:04:55;19.20;99.90
73939;DHT22;62291;47.554;8.504;2023-07-20T02:07:21;19.30;99.90
73939;DHT22;62291;47.554;8.504;2023-07-20T02:09:47;19.30;99.90
73939;DHT22;62291;47.554;8.504;2023-07-20T02:12:13;19.30;99.90
73939;DHT22;62291;47.554;8.504;2023-07-20T02:14:38;19.40;99.90
73939;DHT22;62291;47.554;8.504;2023-07-20T02:17:04;19.40;99.90
73939;DHT22;62291;47.554;8.504;2023-07-20T02:19:30;19.40;99.90
73939;DHT22;62291;47.554;8.504;2023-07-20T02:21:56;19.40;99.90
73939;DHT22;62291;47.554;8.504;2023-07-20T02:24:21;19.40;99.90
73939;DHT22;62291;47.554;8.504;2023-07-20T02:26:47;19.40;99.90
73939;DHT22;62291;47.554;8.504;2023-07-20T02:29:13;19.40;99.90
73939;DHT22;62291;47.554;8.504;2023-07-20T02:31:38;19.40;99.90
73939;DHT22;62291;47.554;8.504;2023-07-20T02:34:07;19.40;99.90
73939;DHT22;62291;47.554;8.504;2023-07-20T02:36:34;19.30;99.90
73939;DHT22;62291;47.554;8.504;2023-07-20T02:39:00;19.30;99.90
73939;DHT22;62291;47.554;8.504;2023-07-20T02:41:27;19.20;99.90
73939;DHT22;62291;47.554;8.504;2023-07-20T02:43:53;19.10;99.90
73939;DHT22;62291;47.554;8.504;2023-07-20T02:46:18;19.00;99.90
73939;DHT22;62291;47.554;8.504;2023-07-20T02:48:44;18.90;99.90
73939;DHT22;62291;47.554;8.504;2023-07-20T02:51:10;18.90;99.90
73939;DHT22;62291;47.554;8.504;2023-07-20T02:53:36;18.80;99.90
73939;DHT22;62291;47.554;8.504;2023-07-20T02:56:02;18.80;99.90
73939;DHT22;62291;47.554;8.504;2023-07-20T02:58:28;18.70;99.90
73939;DHT22;62291;47.554;8.504;2023-07-20T03:00:53;18.70;99.90
73939;DHT22;62291;47.554;8.504;2023-07-20T03:03:19;18.70;99.90
73939;DHT22;62291;47.554;8.504;2023-07-20T03:05:45;18.70;99.90
73939;DHT22;62291;47.554;8.504;2023-07-20T03:08:11;18.60;99.90
73939;DHT22;62291;47.554;8.504;2023-07-20T03:10:40;18.50;99.90
73939;DHT22;62291;47.554;8.504;2023-07-20T03:13:06;18.40;99.90
73939;DHT22;62291;47.554;8.504;2023-07-20T03:15:32;18.20;99.90
73939;DHT22;62291;47.554;8.504;2023-07-20T03:17:58;18.10;99.90
73939;DHT22;62291;47.554;8.504;2023-07-20T03:20:24;18.00;99.90
73939;DHT22;62291;47.554;8.504;2023-07-20T03:22:50;17.90;99.90
73939;DHT22;62291;47.554;8.504;2023-07-20T03:25:16;17.80;99.90
73939;DHT22;62291;47.554;8.504;2023-07-20T03:27:43;17.80;99.90
73939;DHT22;62291;47.554;8.504;2023-07-20T03:30:08;17.70;99.90
73939;DHT22;62291;47.554;8.504;2023-07-20T03:32:35;17.70;99.90
73939;DHT22;62291;47.554;8.504;2023-07-20T03:35:01;17.70;99.90
73939;DHT22;62291;47.554;8.504;2023-07-20T03:37:27;17.70;99.90
73939;DHT22;62291;47.554;8.504;2023-07-20T03:39:53;17.70;99.90
73939;DHT22;62291;47.554;8.504;2023-07-20T03:42:18;17.70;99.90
73939;DHT22;62291;47.554;8.504;2023-07-20T03:44:44;17.70;99.90
73939;DHT22;62291;47.554;8.504;2023-07-20T03:47:10;17.80;99.90
73939;DHT22;62291;47.554;8.504;2023-07-20T03:49:35;17.70;99.90
73939;DHT22;62291;47.554;8.504;2023-07-20T03:52:01;17.80;99.90
73939;DHT22;62291;47.554;8.504;2023-07-20T03:54:30;17.80;99.90
73939;DHT22;62291;47.554;8.504;2023-07-20T03:56:55;17.80;99.90
73939;DHT22;62291;47.554;8.504;2023-07-20T03:59:21;17.80;99.90
73939;DHT22;62291;47.554;8.504;2023-07-20T04:01:47;17.80;99.90
73939;DHT22;62291;47.554;8.504;2023-07-20T04:04:15;17.70;99.90
73939;DHT22;62291;47.554;8.504;2023-07-20T04:06:41;17.60;99.90
73939;DHT22;62291;47.554;8.504;2023-07-20T04:09:11;17.70;99.90
73939;DHT22;62291;47.554;8.504;2023-07-20T04:11:36;17.60;99.90
73939;DHT22;62291;47.554;8.504;2023-07-20T04:14:02;17.60;99.90
73939;DHT22;62291;47.554;8.504;2023-07-20T04:16:28;17.70;99.90
73939;DHT22;62291;47.554;8.504;2023-07-20T04:18:57;17.70;99.90
73939;DHT22;62291;47.554;8.504;2023-07-20T04:21:23;17.80;99.90
73939;DHT22;62291;47.554;8.504;2023-07-20T04:23:49;17.80;99.90
73939;DHT22;62291;47.554;8.504;2023-07-20T04:26:14;17.80;99.90
73939;DHT22;62291;47.554;8.504;2023-07-20T04:28:41;17.80;99.90
73939;DHT22;62291;47.554;8.504;2023-07-20T04:31:11;17.90;99.90
73939;DHT22;62291;47.554;8.504;2023-07-20T04:33:37;17.90;99.90
73939;DHT22;62291;47.554;8.504;2023-07-20T04:36:03;17.90;99.90
73939;DHT22;62291;47.554;8.504;2023-07-20T04:38:29;17.80;99.90
73939;DHT22;62291;47.554;8.504;2023-07-20T04:40:55;17.80;99.90
73939;DHT22;62291;47.554;8.504;2023-07-20T04:43:21;17.90;99.90
73939;DHT22;62291;47.554;8.504;2023-07-20T04:45:46;18.10;99.90
73939;DHT22;62291;47.554;8.504;2023-07-20T04:48:14;18.20;99.90
73939;DHT22;62291;47.554;8.504;2023-07-20T04:50:41;18.30;99.90
73939;DHT22;62291;47.554;8.504;2023-07-20T04:53:09;18.30;99.90
73939;DHT22;62291;47.554;8.504;2023-07-20T04:55:36;18.40;99.90
73939;DHT22;62291;47.554;8.504;2023-07-20T04:58:02;18.40;99.90
73939;DHT22;62291;47.554;8.504;2023-07-20T05:00:29;18.40;99.90
73939;DHT22;62291;47.554;8.504;2023-07-20T05:02:55;18.40;99.90
73939;DHT22;62291;47.554;8.504;2023-07-20T05:05:21;18.50;99.90
73939;DHT22;62291;47.554;8.504;2023-07-20T05:07:47;18.60;99.90
73939;DHT22;62291;47.554;8.504;2023-07-20T05:10:13;18.60;99.90
73939;DHT22;62291;47.554;8.504;2023-07-20T05:12:39;18.60;99.90
73939;DHT22;62291;47.554;8.504;2023-07-20T05:15:05;18.70;99.90
73939;DHT22;62291;47.554;8.504;2023-07-20T05:17:31;18.80;99.90
73939;DHT22;62291;47.554;8.504;2023-07-20T05:19:56;18.90;99.90
73939;DHT22;62291;47.554;8.504;2023-07-20T05:22:22;19.00;99.90
73939;DHT22;62291;47.554;8.504;2023-07-20T05:24:50;19.00;99.90
73939;DHT22;62291;47.554;8.504;2023-07-20T05:27:16;19.10;99.90
73939;DHT22;62291;47.554;8.504;2023-07-20T05:29:45;19.20;99.90
73939;DHT22;62291;47.554;8.504;2023-07-20T05:32:11;19.40;99.90
73939;DHT22;62291;47.554;8.504;2023-07-20T05:34:36;19.70;99.90
73939;DHT22;62291;47.554;8.504;2023-07-20T05:37:11;19.70;99.90
73939;DHT22;62291;47.554;8.504;2023-07-20T05:39:37;19.70;99.90
73939;DHT22;62291;47.554;8.504;2023-07-20T05:42:03;19.70;99.90
73939;DHT22;62291;47.554;8.504;2023-07-20T05:44:29;19.80;99.90
73939;DHT22;62291;47.554;8.504;2023-07-20T05:46:55;19.90;99.90
73939;DHT22;62291;47.554;8.504;2023-07-20T05:49:20;19.80;99.90
73939;DHT22;62291;47.554;8.504;2023-07-20T05:51:46;19.90;99.90
73939;DHT22;62291;47.554;8.504;2023-07-20T05:54:12;20.10;99.90
73939;DHT22;62291;47.554;8.504;2023-07-20T05:56:38;20.40;99.90
73939;DHT22;62291;47.554;8.504;2023-07-20T05:59:03;20.90;99.90
73939;DHT22;62291;47.554;8.504;2023-07-20T06:01:29;21.60;99.90
73939;DHT22;62291;47.554;8.504;2023-07-20T06:03:54;22.30;99.90
73939;DHT22;62291;47.554;8.504;2023-07-20T06:06:20;22.50;99.90
73939;DHT22;62291;47.554;8.504;2023-07-20T06:08:47;22.60;99.90
73939;DHT22;62291;47.554;8.504;2023-07-20T06:11:12;22.60;99.90
73939;DHT22;62291;47.554;8.504;2023-07-20T06:13:38;22.80;99.90
73939;DHT22;62291;47.554;8.504;2023-07-20T06:16:04;23.10;99.90
73939;DHT22;62291;47.554;8.504;2023-07-20T06:18:30;23.00;99.90
73939;DHT22;62291;47.554;8.504;2023-07-20T06:20:58;22.70;99.90
73939;DHT22;62291;47.554;8.504;2023-07-20T06:23:24;22.60;99.90
73939;DHT22;62291;47.554;8.504;2023-07-20T06:25:50;22.30;99.90
73939;DHT22;62291;47.554;8.504;2023-07-20T06:28:15;22.20;99.90
73939;DHT22;62291;47.554;8.504;2023-07-20T06:30:41;22.80;99.90
73939;DHT22;62291;47.554;8.504;2023-07-20T06:33:07;23.10;99.90
73939;DHT22;62291;47.554;8.504;2023-07-20T06:35:34;23.20;99.90
73939;DHT22;62291;47.554;8.504;2023-07-20T06:38:00;23.10;99.90
73939;DHT22;62291;47.554;8.504;2023-07-20T06:40:26;24.10;99.90
73939;DHT22;62291;47.554;8.504;2023-07-20T06:42:52;23.90;97.00
73939;DHT22;62291;47.554;8.504;2023-07-20T06:45:18;24.10;98.10
73939;DHT22;62291;47.554;8.504;2023-07-20T06:47:43;24.40;97.40
73939;DHT22;62291;47.554;8.504;2023-07-20T06:50:10;25.10;97.30
73939;DHT22;62291;47.554;8.504;2023-07-20T06:52:36;25.80;95.80
73939;DHT22;62291;47.554;8.504;2023-07-20T06:55:02;26.10;93.80
73939;DHT22;62291;47.554;8.504;2023-07-20T06:57:28;26.20;94.00
73939;DHT22;62291;47.554;8.504;2023-07-20T06:59:54;25.50;94.50
73939;DHT22;62291;47.554;8.504;2023-07-20T07:02:19;24.90;95.40
73939;DHT22;62291;47.554;8.504;2023-07-20T07:04:45;24.60;96.40
73939;DHT22;62291;47.554;8.504;2023-07-20T07:07:14;24.50;96.90
73939;DHT22;62291;47.554;8.504;2023-07-20T07:09:40;25.10;95.90
73939;DHT22;62291;47.554;8.504;2023-07-20T07:12:06;25.20;95.10
73939;DHT22;62291;47.554;8.504;2023-07-20T07:14:32;25.00;95.00
73939;DHT22;62291;47.554;8.504;2023-07-20T07:16:58;24.70;95.50
73939;DHT22;62291;47.554;8.504;2023-07-20T07:19:24;24.60;96.00
73939;DHT22;62291;47.554;8.504;2023-07-20T07:21:49;24.50;96.10
73939;DHT22;62291;47.554;8.504;2023-07-20T07:24:15;24.50;95.80
73939;DHT22;62291;47.554;8.504;2023-07-20T07:26:41;24.70;94.50
73939;DHT22;62291;47.554;8.504;2023-07-20T07:29:07;25.50;94.00
73939;DHT22;62291;47.554;8.504;2023-07-20T07:31:34;25.70;93.50
73939;DHT22;62291;47.554;8.504;2023-07-20T07:34:04;26.00;92.10
73939;DHT22;62291;47.554;8.504;2023-07-20T07:36:31;26.60;93.10
73939;DHT22;62291;47.554;8.504;2023-07-20T07:38:57;27.10;90.50
73939;DHT22;62291;47.554;8.504;2023-07-20T07:41:22;27.80;90.10
73939;DHT22;62291;47.554;8.504;2023-07-20T07:43:48;27.30;84.60
73939;DHT22;62291;47.554;8.504;2023-07-20T07:46:14;26.70;85.50
73939;DHT22;62291;47.554;8.504;2023-07-20T07:48:42;26.50;89.60
73939;DHT22;62291;47.554;8.504;2023-07-20T07:51:08;26.30;87.90
73939;DHT22;62291;47.554;8.504;2023-07-20T07:53:34;26.00;87.60
73939;DHT22;62291;47.554;8.504;2023-07-20T07:56:02;26.30;90.20
73939;DHT22;62291;47.554;8.504;2023-07-20T07:58:28;26.90;86.00
73939;DHT22;62291;47.554;8.504;2023-07-20T08:00:54;27.40;85.50
73939;DHT22;62291;47.554;8.504;2023-07-20T08:03:19;26.90;86.00
73939;DHT22;62291;47.554;8.504;2023-07-20T08:05:45;26.80;85.50
73939;DHT22;62291;47.554;8.504;2023-07-20T08:08:11;26.50;88.60
73939;DHT22;62291;47.554;8.504;2023-07-20T08:10:37;26.80;88.60
73939;DHT22;62291;47.554;8.504;2023-07-20T08:13:02;26.90;85.90
73939;DHT22;62291;47.554;8.504;2023-07-20T08:15:28;27.00;85.70
73939;DHT22;62291;47.554;8.504;2023-07-20T08:17:54;27.20;84.20
73939;DHT22;62291;47.554;8.504;2023-07-20T08:20:20;27.50;84.50
73939;DHT22;62291;47.554;8.504;2023-07-20T08:22:54;28.10;81.80
73939;DHT22;62291;47.554;8.504;2023-07-20T08:25:21;28.50;81.10
73939;DHT22;62291;47.554;8.504;2023-07-20T08:27:46;28.90;80.80
73939;DHT22;62291;47.554;8.504;2023-07-20T08:30:13;29.70;78.30
73939;DHT22;62291;47.554;8.504;2023-07-20T08:32:39;29.80;76.40
73939;DHT22;62291;47.554;8.504;2023-07-20T08:35:05;29.10;76.60
73939;DHT22;62291;47.554;8.504;2023-07-20T08:37:31;29.00;77.00
73939;DHT22;62291;47.554;8.504;2023-07-20T08:39:57;28.70;75.80
73939;DHT22;62291;47.554;8.504;2023-07-20T08:42:22;28.70;76.80
73939;DHT22;62291;47.554;8.504;2023-07-20T08:44:48;28.40;77.10
73939;DHT22;62291;47.554;8.504;2023-07-20T08:47:16;28.60;78.40
73939;DHT22;62291;47.554;8.504;2023-07-20T08:49:42;29.40;80.90
73939;DHT22;62291;47.554;8.504;2023-07-20T08:52:08;29.70;77.90
73939;DHT22;62291;47.554;8.504;2023-07-20T08:54:34;29.50;75.40
73939;DHT22;62291;47.554;8.504;2023-07-20T08:57:05;29.30;80.80
73939;DHT22;62291;47.554;8.504;2023-07-20T08:59:31;29.70;77.70
73939;DHT22;62291;47.554;8.504;2023-07-20T09:01:58;29.40;76.30
73939;DHT22;62291;47.554;8.504;2023-07-20T09:04:25;28.50;74.50
73939;DHT22;62291;47.554;8.504;2023-07-20T09:06:51;28.30;76.60
73939;DHT22;62291;47.554;8.504;2023-07-20T09:09:17;28.10;78.10
73939;DHT22;62291;47.554;8.504;2023-07-20T09:11:47;28.10;79.10
73939;DHT22;62291;47.554;8.504;2023-07-20T09:14:13;27.70;78.30
73939;DHT22;62291;47.554;8.504;2023-07-20T09:16:53;27.10;79.50
73939;DHT22;62291;47.554;8.504;2023-07-20T09:19:20;27.10;82.40
73939;DHT22;62291;47.554;8.504;2023-07-20T09:21:48;27.10;80.40
73939;DHT22;62291;47.554;8.504;2023-07-20T09:24:14;27.70;80.50
73939;DHT22;62291;47.554;8.504;2023-07-20T09:26:42;27.90;80.90
73939;DHT22;62291;47.554;8.504;2023-07-20T09:29:09;27.80;79.30
73939;DHT22;62291;47.554;8.504;2023-07-20T09:31:35;27.80;78.00
73939;DHT22;62291;47.554;8.504;2023-07-20T09:34:01;27.60;81.50
73939;DHT22;62291;47.554;8.504;2023-07-20T09:36:27;27.30;79.50
73939;DHT22;62291;47.554;8.504;2023-07-20T09:38:53;27.30;80.50
73939;DHT22;62291;47.554;8.504;2023-07-20T09:41:20;27.50;78.00
73939;DHT22;62291;47.554;8.504;2023-07-20T09:43:46;27.80;80.30
73939;DHT22;62291;47.554;8.504;2023-07-20T09:46:12;28.20;76.80
73939;DHT22;62291;47.554;8.504;2023-07-20T09:48:39;29.30;79.30
73939;DHT22;62291;47.554;8.504;2023-07-20T09:51:05;30.40;72.90
73939;DHT22;62291;47.554;8.504;2023-07-20T09:53:33;31.20;69.10
73939;DHT22;62291;47.554;8.504;2023-07-20T09:55:59;31.30;69.50
73939;DHT22;62291;47.554;8.504;2023-07-20T09:58:29;31.50;68.30
73939;DHT22;62291;47.554;8.504;2023-07-20T10:00:57;32.20;67.40
73939;DHT22;62291;47.554;8.504;2023-07-20T10:03:29;32.90;66.30
73939;DHT22;62291;47.554;8.504;2023-07-20T10:05:58;32.90;62.20
73939;DHT22;62291;47.554;8.504;2023-07-20T10:08:26;32.20;64.50
73939;DHT22;62291;47.554;8.504;2023-07-20T10:10:51;32.10;68.90
73939;DHT22;62291;47.554;8.504;2023-07-20T10:13:20;32.10;64.40
73939;DHT22;62291;47.554;8.504;2023-07-20T10:15:50;31.60;64.60
73939;DHT22;62291;47.554;8.504;2023-07-20T10:20:47;30.90;70.10
73939;DHT22;62291;47.554;8.504;2023-07-20T10:23:14;30.80;66.40
73939;DHT22;62291;47.554;8.504;2023-07-20T10:25:40;30.50;66.30
73939;DHT22;62291;47.554;8.504;2023-07-20T10:28:08;30.00;64.30
73939;DHT22;62291;47.554;8.504;2023-07-20T10:30:36;29.20;67.10
73939;DHT22;62291;47.554;8.504;2023-07-20T10:33:06;28.40;69.80
73939;DHT22;62291;47.554;8.504;2023-07-20T10:36:00;27.90;70.50
73939;DHT22;62291;47.554;8.504;2023-07-20T10:41:29;28.60;70.90
73939;DHT22;62291;47.554;8.504;2023-07-20T10:44:04;29.20;69.90
73939;DHT22;62291;47.554;8.504;2023-07-20T10:49:09;29.70;66.30
73939;DHT22;62291;47.554;8.504;2023-07-20T10:51:59;29.60;68.30
73939;DHT22;62291;47.554;8.504;2023-07-20T10:56:51;29.70;71.10
73939;DHT22;62291;47.554;8.504;2023-07-20T11:01:50;29.40;63.60
73939;DHT22;62291;47.554;8.504;2023-07-20T11:04:16;29.30;67.60
73939;DHT22;62291;47.554;8.504;2023-07-20T11:06:46;29.30;71.60
73939;DHT22;62291;47.554;8.504;2023-07-20T11:09:13;29.40;69.90
73939;DHT22;62291;47.554;8.504;2023-07-20T11:11:41;29.50;69.10
73939;DHT22;62291;47.554;8.504;2023-07-20T11:14:23;29.40;66.60
73939;DHT22;62291;47.554;8.504;2023-07-20T11:16:51;29.40;69.00
73939;DHT22;62291;47.554;8.504;2023-07-20T11:19:22;29.50;69.90
73939;DHT22;62291;47.554;8.504;2023-07-20T11:21:54;29.50;66.60
73939;DHT22;62291;47.554;8.504;2023-07-20T11:24:21;29.50;70.10
73939;DHT22;62291;47.554;8.504;2023-07-20T11:29:15;30.10;66.80
73939;DHT22;62291;47.554;8.504;2023-07-20T11:31:42;30.30;65.00
73939;DHT22;62291;47.554;8.504;2023-07-20T11:34:13;30.50;63.20
73939;DHT22;62291;47.554;8.504;2023-07-20T11:36:44;30.60;66.90
73939;DHT22;62291;47.554;8.504;2023-07-20T11:39:12;30.90;66.60
73939;DHT22;62291;47.554;8.504;2023-07-20T11:41:39;31.20;63.80
73939;DHT22;62291;47.554;8.504;2023-07-20T11:44:09;30.50;62.70
73939;DHT22;62291;47.554;8.504;2023-07-20T11:46:39;29.70;67.10
73939;DHT22;62291;47.554;8.504;2023-07-20T11:49:05;28.80;63.80
73939;DHT22;62291;47.554;8.504;2023-07-20T11:51:32;28.10;66.10
73939;DHT22;62291;47.554;8.504;2023-07-20T11:53:58;28.10;67.20
73939;DHT22;62291;47.554;8.504;2023-07-20T11:56:25;28.10;70.70
73939;DHT22;62291;47.554;8.504;2023-07-20T11:58:55;28.20;67.90
73939;DHT22;62291;47.554;8.504;2023-07-20T12:01:23;28.30;67.90
73939;DHT22;62291;47.554;8.504;2023-07-20T12:03:49;28.50;68.20
73939;DHT22;62291;47.554;8.504;2023-07-20T12:06:15;28.70;68.60
73939;DHT22;62291;47.554;8.504;2023-07-20T12:08:42;28.90;66.80
73939;DHT22;62291;47.554;8.504;2023-07-20T12:11:08;29.20;68.30
73939;DHT22;62291;47.554;8.504;2023-07-20T12:13:44;29.50;67.60
73939;DHT22;62291;47.554;8.504;2023-07-20T12:16:16;29.30;63.00
73939;DHT22;62291;47.554;8.504;2023-07-20T12:18:45;29.00;62.20
73939;DHT22;62291;47.554;8.504;2023-07-20T12:21:11;29.40;68.70
73939;DHT22;62291;47.554;8.504;2023-07-20T12:23:40;29.50;69.60
73939;DHT22;62291;47.554;8.504;2023-07-20T12:26:08;29.30;67.60
73939;DHT22;62291;47.554;8.504;2023-07-20T12:28:39;29.50;66.60
73939;DHT22;62291;47.554;8.504;2023-07-20T12:31:09;29.70;70.00
73939;DHT22;62291;47.554;8.504;2023-07-20T12:33:37;29.50;71.90
73939;DHT22;62291;47.554;8.504;2023-07-20T12:36:04;29.70;66.90
73939;DHT22;62291;47.554;8.504;2023-07-20T12:38:30;29.70;64.40
73939;DHT22;62291;47.554;8.504;2023-07-20T12:41:03;29.40;67.50
73939;DHT22;62291;47.554;8.504;2023-07-20T12:43:29;29.10;65.70
73939;DHT22;62291;47.554;8.504;2023-07-20T12:45:55;28.50;63.70
73939;DHT22;62291;47.554;8.504;2023-07-20T12:48:21;28.30;68.50
73939;DHT22;62291;47.554;8.504;2023-07-20T12:50:47;27.80;69.50
73939;DHT22;62291;47.554;8.504;2023-07-20T12:53:13;27.40;68.50
73939;DHT22;62291;47.554;8.504;2023-07-20T12:55:39;27.00;69.20
73939;DHT22;62291;47.554;8.504;2023-07-20T12:58:06;26.90;70.40
73939;DHT22;62291;47.554;8.504;2023-07-20T13:00:31;27.00;75.10
73939;DHT22;62291;47.554;8.504;2023-07-20T13:02:57;27.40;69.20
73939;DHT22;62291;47.554;8.504;2023-07-20T13:05:23;27.90;72.90
73939;DHT22;62291;47.554;8.504;2023-07-20T13:07:49;28.20;68.90
73939;DHT22;62291;47.554;8.504;2023-07-20T13:10:15;28.60;68.70
73939;DHT22;62291;47.554;8.504;2023-07-20T13:12:41;28.90;67.90
73939;DHT22;62291;47.554;8.504;2023-07-20T13:15:08;29.00;67.50
73939;DHT22;62291;47.554;8.504;2023-07-20T13:17:34;29.00;65.70
73939;DHT22;62291;47.554;8.504;2023-07-20T13:20:02;29.00;69.50
73939;DHT22;62291;47.554;8.504;2023-07-20T13:22:30;29.10;68.50
73939;DHT22;62291;47.554;8.504;2023-07-20T13:24:56;28.90;67.80
73939;DHT22;62291;47.554;8.504;2023-07-20T13:27:21;28.60;65.10
73939;DHT22;62291;47.554;8.504;2023-07-20T13:29:47;28.70;65.70
73939;DHT22;62291;47.554;8.504;2023-07-20T13:32:14;28.60;67.30
73939;DHT22;62291;47.554;8.504;2023-07-20T13:34:44;28.40;69.60
73939;DHT22;62291;47.554;8.504;2023-07-20T13:37:10;28.20;70.20
73939;DHT22;62291;47.554;8.504;2023-07-20T13:39:37;28.10;69.80
73939;DHT22;62291;47.554;8.504;2023-07-20T13:42:03;28.10;68.70
73939;DHT22;62291;47.554;8.504;2023-07-20T13:44:31;28.00;67.70
73939;DHT22;62291;47.554;8.504;2023-07-20T13:46:57;28.10;71.00
73939;DHT22;62291;47.554;8.504;2023-07-20T13:49:23;28.00;69.60
73939;DHT22;62291;47.554;8.504;2023-07-20T13:51:49;28.10;67.80
73939;DHT22;62291;47.554;8.504;2023-07-20T13:54:15;28.10;69.00
73939;DHT22;62291;47.554;8.504;2023-07-20T13:56:40;28.10;65.20
73939;DHT22;62291;47.554;8.504;2023-07-20T13:59:06;28.10;66.30
73939;DHT22;62291;47.554;8.504;2023-07-20T14:01:32;28.00;67.40
73939;DHT22;62291;47.554;8.504;2023-07-20T14:04:01;27.70;67.40
73939;DHT22;62291;47.554;8.504;2023-07-20T14:06:31;27.50;68.20
73939;DHT22;62291;47.554;8.504;2023-07-20T14:08:58;27.40;69.20
73939;DHT22;62291;47.554;8.504;2023-07-20T14:11:24;27.60;73.10
73939;DHT22;62291;47.554;8.504;2023-07-20T14:13:50;27.80;70.30
73939;DHT22;62291;47.554;8.504;2023-07-20T14:16:17;27.90;71.30
73939;DHT22;62291;47.554;8.504;2023-07-20T14:18:42;28.00;70.90
73939;DHT22;62291;47.554;8.504;2023-07-20T14:21:08;27.80;67.60
73939;DHT22;62291;47.554;8.504;2023-07-20T14:23:34;27.70;72.10
73939;DHT22;62291;47.554;8.504;2023-07-20T14:26:01;27.80;71.80
73939;DHT22;62291;47.554;8.504;2023-07-20T14:28:31;27.80;69.50
73939;DHT22;62291;47.554;8.504;2023-07-20T14:30:57;27.80;70.90
73939;DHT22;62291;47.554;8.504;2023-07-20T14:33:23;27.60;70.50
73939;DHT22;62291;47.554;8.504;2023-07-20T14:35:48;27.50;71.50
73939;DHT22;62291;47.554;8.504;2023-07-20T14:38:14;27.40;72.90
73939;DHT22;62291;47.554;8.504;2023-07-20T14:40:40;27.30;73.00
73939;DHT22;62291;47.554;8.504;2023-07-20T14:43:06;27.40;72.00
73939;DHT22;62291;47.554;8.504;2023-07-20T14:45:32;27.40;70.60
73939;DHT22;62291;47.554;8.504;2023-07-20T14:47:58;27.40;71.10
73939;DHT22;62291;47.554;8.504;2023-07-20T14:50:24;27.30;70.70
73939;DHT22;62291;47.554;8.504;2023-07-20T14:52:50;27.30;69.60
73939;DHT22;62291;47.554;8.504;2023-07-20T14:55:16;27.30;70.30
73939;DHT22;62291;47.554;8.504;2023-07-20T14:57:42;27.30;71.70
73939;DHT22;62291;47.554;8.504;2023-07-20T15:00:09;27.30;72.30
73939;DHT22;62291;47.554;8.504;2023-07-20T15:02:37;27.10;71.20
73939;DHT22;62291;47.554;8.504;2023-07-20T15:05:06;27.00;72.00
73939;DHT22;62291;47.554;8.504;2023-07-20T15:07:32;27.00;72.50
73939;DHT22;62291;47.554;8.504;2023-07-20T15:09:57;27.00;72.40
73939;DHT22;62291;47.554;8.504;2023-07-20T15:12:23;26.90;73.50
73939;DHT22;62291;47.554;8.504;2023-07-20T15:15:08;26.90;71.90
73939;DHT22;62291;47.554;8.504;2023-07-20T15:17:35;26.90;70.80
73939;DHT22;62291;47.554;8.504;2023-07-20T15:20:02;26.80;72.60
73939;DHT22;62291;47.554;8.504;2023-07-20T15:22:30;26.70;74.00
73939;DHT22;62291;47.554;8.504;2023-07-20T15:24:56;26.80;72.90
73939;DHT22;62291;47.554;8.504;2023-07-20T15:27:22;26.80;71.20
73939;DHT22;62291;47.554;8.504;2023-07-20T15:29:51;26.70;69.20
73939;DHT22;62291;47.554;8.504;2023-07-20T15:32:18;26.50;69.00
73939;DHT22;62291;47.554;8.504;2023-07-20T15:34:44;26.70;70.20
73939;DHT22;62291;47.554;8.504;2023-07-20T15:37:11;26.70;73.00
73939;DHT22;62291;47.554;8.504;2023-07-20T15:39:37;26.90;75.20
73939;DHT22;62291;47.554;8.504;2023-07-20T15:42:03;26.80;72.10
73939;DHT22;62291;47.554;8.504;2023-07-20T15:44:29;26.80;72.20
73939;DHT22;62291;47.554;8.504;2023-07-20T15:46:56;26.90;73.40
73939;DHT22;62291;47.554;8.504;2023-07-20T15:49:22;26.90;70.80
73939;DHT22;62291;47.554;8.504;2023-07-20T15:51:50;26.90;73.10
73939;DHT22;62291;47.554;8.504;2023-07-20T15:54:15;26.80;72.70